Time;durP1;ratioP1;P1;durP2;ratioP2;P2;SDS_P1;SDS_P2;PMS_P1;PMS_P2;Temp;Humidity;BMP_temperature;BMP_pressure;BME280_temperature;BME280_humidity;BME280_pressure;Samples;Min_cycle;Max_cycle;Signal;HPM_P1;HPM_P2
2023/01/10 00:00:34;;;;;;;23.50;10.07;;;6.70;99.90;;;;;;4948420;28;20158;-64
2023/01/10 00:03:02;;;;;;;24.15;11.75;;;6.60;99.90;;;;;;4931861;29;20065;-66
2023/01/10 00:05:29;;;;;;;19.67;10.50;;;6.60;99.90;;;;;;4949168;28;20043;-66
2023/01/10 00:07:57;;;;;;;22.50;10.20;;;6.60;99.90;;;;;;4934502;29;20147;-66
2023/01/10 00:10:24;;;;;;;23.60;11.23;;;6.70;99.90;;;;;;4948291;28;20054;-66
2023/01/10 00:15:35;;;;;;;20.08;10.18;;;6.70;99.90;;;;;;4967365;28;20121;-65
2023/01/10 00:18:02;;;;;;;25.35;11.35;;;6.70;99.90;;;;;;4978943;28;20738;-66
2023/01/10 00:20:28;;;;;;;22.23;11.00;;;6.70;99.90;;;;;;4972837;28;20048;-65
2023/01/10 00:22:56;;;;;;;19.77;10.80;;;6.70;99.90;;;;;;4946037;28;20057;-64
2023/01/10 00:25:22;;;;;;;27.65;10.82;;;6.70;99.90;;;;;;4987853;28;20106;-66
2023/01/10 00:27:52;;;;;;;24.08;10.73;;;6.70;99.90;;;;;;4937927;28;20054;-65
2023/01/10 00:30:18;;;;;;;21.70;11.45;;;6.70;99.90;;;;;;4950146;28;20050;-64
2023/01/10 00:32:44;;;;;;;27.63;11.50;;;6.70;99.90;;;;;;4951542;28;20086;-66
2023/01/10 00:35:10;;;;;;;21.27;10.85;;;6.70;99.90;;;;;;4951662;28;20130;-65
2023/01/10 00:37:37;;;;;;;18.60;11.02;;;6.70;99.90;;;;;;4951601;28;20129;-65
2023/01/10 00:40:07;;;;;;;25.08;11.85;;;6.70;99.90;;;;;;4986711;28;20627;-65
2023/01/10 00:45:18;;;;;;;19.02;9.35;;;6.70;99.90;;;;;;4937377;29;20651;-64
2023/01/10 00:47:44;;;;;;;20.38;10.38;;;6.70;99.90;;;;;;4951352;28;20106;-66
2023/01/10 00:50:13;;;;;;;24.02;10.70;;;6.70;99.90;;;;;;4947781;28;20055;-64
2023/01/10 00:52:39;;;;;;;22.00;11.35;;;6.70;99.90;;;;;;4951264;28;20047;-65
2023/01/10 00:55:05;;;;;;;21.23;10.68;;;6.70;99.90;;;;;;4982380;28;20043;-65
2023/01/10 00:57:31;;;;;;;22.58;10.57;;;6.80;99.90;;;;;;4951903;28;20047;-65
2023/01/10 00:59:57;;;;;;;24.42;10.48;;;6.80;99.90;;;;;;4982375;28;20049;-65
2023/01/10 01:02:24;;;;;;;20.52;10.25;;;6.80;99.90;;;;;;4931397;29;20524;-66
2023/01/10 01:04:50;;;;;;;20.92;11.00;;;6.80;99.90;;;;;;4976393;28;20054;-64
2023/01/10 01:07:15;;;;;;;24.80;10.40;;;6.80;99.90;;;;;;4951251;28;20062;-65
2023/01/10 01:12:25;;;;;;;18.30;9.20;;;6.70;99.90;;;;;;4951498;28;20089;-63
2023/01/10 01:14:51;;;;;;;19.40;10.05;;;6.70;99.90;;;;;;4964554;28;20047;-64
2023/01/10 01:17:17;;;;;;;22.23;10.40;;;6.70;99.90;;;;;;4966289;28;20370;-64
2023/01/10 01:19:43;;;;;;;21.63;10.60;;;6.70;99.90;;;;;;4967416;28;20710;-65
2023/01/10 01:22:09;;;;;;;19.23;10.18;;;6.70;99.90;;;;;;4966455;28;20122;-64
2023/01/10 01:24:35;;;;;;;24.77;10.77;;;6.70;99.90;;;;;;4951417;29;20051;-64
2023/01/10 01:27:06;;;;;;;17.58;10.07;;;6.70;99.90;;;;;;4982792;28;20050;-64
2023/01/10 01:29:35;;;;;;;28.35;10.68;;;6.70;99.90;;;;;;4947782;28;20047;-64
2023/01/10 01:32:00;;;;;;;25.42;10.60;;;6.70;99.90;;;;;;4951189;28;20047;-65
2023/01/10 01:34:26;;;;;;;24.00;12.13;;;6.70;99.90;;;;;;4966086;28;20043;-64
2023/01/10 01:36:52;;;;;;;21.88;11.02;;;6.70;99.90;;;;;;4965075;28;20051;-66
2023/01/10 01:39:18;;;;;;;17.85;10.05;;;6.80;99.90;;;;;;4946560;28;20059;-64
2023/01/10 01:41:56;;;;;;;23.25;11.10;;;6.70;99.90;;;;;;4949380;29;20549;-64
2023/01/10 01:44:21;;;;;;;18.70;11.85;;;6.70;99.90;;;;;;4949390;28;20059;-65
2023/01/10 01:47:00;;;;;;;21.42;10.70;;;6.70;99.90;;;;;;4965818;28;20070;-65
2023/01/10 01:49:26;;;;;;;23.50;11.65;;;6.70;99.90;;;;;;4964825;28;20054;-65
2023/01/10 01:51:56;;;;;;;20.10;11.55;;;6.70;99.90;;;;;;4964685;28;20519;-64
2023/01/10 01:54:22;;;;;;;21.38;12.23;;;6.60;99.90;;;;;;4963894;28;20051;-64
2023/01/10 01:57:02;;;;;;;22.85;12.55;;;6.70;99.90;;;;;;4964762;28;20380;-66
2023/01/10 01:59:34;;;;;;;21.65;12.65;;;6.60;99.90;;;;;;4947367;29;20051;-65
2023/01/10 02:02:03;;;;;;;23.30;13.25;;;6.60;99.90;;;;;;4933490;29;20075;-65
2023/01/10 02:04:36;;;;;;;25.55;15.95;;;6.60;99.90;;;;;;4950575;28;20327;-65
2023/01/10 02:07:02;;;;;;;23.23;13.30;;;6.60;99.90;;;;;;4964786;28;20047;-67
2023/01/10 02:09:48;;;;;;;22.50;14.02;;;6.60;99.90;;;;;;4979617;28;20049;-66
2023/01/10 02:12:14;;;;;;;22.95;12.90;;;6.60;99.90;;;;;;4958443;28;20055;-65
2023/01/10 02:14:41;;;;;;;22.98;14.38;;;6.60;99.90;;;;;;4933489;29;20047;-65
2023/01/10 02:17:10;;;;;;;23.92;13.75;;;6.70;99.90;;;;;;4940986;28;20051;-65
2023/01/10 02:19:57;;;;;;;20.08;13.13;;;6.60;99.90;;;;;;4965969;28;20069;-65
2023/01/10 02:22:46;;;;;;;22.05;12.40;;;6.60;99.90;;;;;;4961912;28;20385;-66
2023/01/10 02:25:27;;;;;;;24.73;12.48;;;6.60;99.90;;;;;;4977593;28;20051;-66
2023/01/10 02:28:11;;;;;;;22.80;12.40;;;6.70;99.90;;;;;;4945327;29;20415;-64
2023/01/10 02:30:42;;;;;;;17.50;11.88;;;6.70;99.90;;;;;;4950083;29;20504;-65
2023/01/10 02:33:23;;;;;;;25.33;12.48;;;6.70;99.90;;;;;;4949844;29;20086;-64
2023/01/10 02:36:04;;;;;;;22.65;12.85;;;6.70;99.90;;;;;;4979750;28;20047;-65
2023/01/10 02:38:55;;;;;;;19.35;12.30;;;6.70;99.90;;;;;;4983006;28;20048;-65
2023/01/10 02:41:54;;;;;;;22.17;12.75;;;6.60;99.90;;;;;;4935505;29;20043;-65
2023/01/10 02:44:21;;;;;;;20.52;12.68;;;6.60;99.90;;;;;;4944604;29;20043;-65
2023/01/10 02:46:47;;;;;;;24.75;13.40;;;6.60;99.90;;;;;;4965383;28;20445;-65
2023/01/10 02:49:13;;;;;;;27.75;13.60;;;6.60;99.90;;;;;;4980999;28;20106;-65
2023/01/10 02:51:39;;;;;;;19.92;12.50;;;6.60;99.90;;;;;;4967755;28;20043;-65
2023/01/10 02:54:28;;;;;;;24.42;13.43;;;6.70;99.90;;;;;;4969441;28;20110;-65
2023/01/10 02:56:56;;;;;;;23.05;13.35;;;6.60;99.90;;;;;;4966733;28;20051;-64
2023/01/10 02:59:44;;;;;;;29.60;13.73;;;6.60;99.90;;;;;;4984418;28;20492;-65
2023/01/10 03:02:28;;;;;;;21.83;13.05;;;6.50;99.90;;;;;;4953230;28;20481;-66
2023/01/10 03:05:25;;;;;;;19.42;13.63;;;6.50;99.90;;;;;;4948817;29;20477;-65
2023/01/10 03:08:03;;;;;;;22.00;13.00;;;6.50;99.90;;;;;;4983844;28;20082;-65
2023/01/10 03:10:43;;;;;;;23.52;12.90;;;6.60;99.90;;;;;;4954240;29;20043;-64
2023/01/10 03:13:22;;;;;;;23.55;13.77;;;6.60;99.90;;;;;;4966765;28;20055;-64
2023/01/10 03:15:48;;;;;;;20.33;11.93;;;6.60;99.90;;;;;;4981915;28;20047;-65
2023/01/10 03:18:30;;;;;;;22.17;12.32;;;6.60;99.90;;;;;;4967753;28;20059;-65
2023/01/10 03:20:56;;;;;;;18.15;11.23;;;6.60;99.90;;;;;;4966694;28;20039;-65
2023/01/10 03:23:23;;;;;;;19.35;11.15;;;6.50;99.90;;;;;;4967696;28;20058;-65
2023/01/10 03:25:49;;;;;;;17.38;11.30;;;6.60;99.90;;;;;;4965307;28;20058;-65
2023/01/10 03:28:28;;;;;;;17.67;11.07;;;6.60;99.90;;;;;;4943348;29;20043;-64
2023/01/10 03:31:09;;;;;;;16.50;10.95;;;6.60;99.90;;;;;;4951979;29;20385;-66
2023/01/10 03:33:35;;;;;;;22.33;10.57;;;6.60;99.90;;;;;;4963642;28;20047;-64
2023/01/10 03:36:35;;;;;;;20.67;10.13;;;6.60;99.90;;;;;;4983987;28;20469;-64
2023/01/10 03:39:21;;;;;;;17.52;9.35;;;6.60;99.90;;;;;;4947677;28;20047;-64
2023/01/10 03:42:09;;;;;;;15.18;9.02;;;6.60;99.90;;;;;;4947229;28;20051;-64
2023/01/10 03:44:57;;;;;;;14.05;7.35;;;6.50;99.90;;;;;;4917034;29;20077;-63
2023/01/10 03:47:45;;;;;;;14.45;7.22;;;6.40;99.90;;;;;;4952127;28;20366;-64
2023/01/10 03:50:12;;;;;;;13.65;6.47;;;6.30;99.90;;;;;;4949022;29;20091;-63
2023/01/10 03:52:38;;;;;;;14.32;7.43;;;6.30;99.90;;;;;;4951503;28;20634;-64
2023/01/10 03:55:06;;;;;;;11.70;7.63;;;6.20;99.90;;;;;;4935959;29;20051;-64
2023/01/10 03:57:32;;;;;;;16.55;7.32;;;6.30;99.90;;;;;;4935998;29;20438;-64
2023/01/10 03:59:58;;;;;;;13.65;7.32;;;6.30;99.90;;;;;;4961728;28;20051;-64
2023/01/10 04:02:28;;;;;;;13.88;6.57;;;6.30;99.90;;;;;;4933786;29;20170;-64
2023/01/10 04:04:54;;;;;;;14.65;6.97;;;6.30;99.90;;;;;;4935728;29;20054;-63
2023/01/10 04:07:20;;;;;;;13.43;6.57;;;6.30;99.90;;;;;;4950505;28;20122;-63
2023/01/10 04:09:46;;;;;;;18.17;7.00;;;6.40;99.90;;;;;;4951729;28;20043;-64
2023/01/10 04:12:13;;;;;;;14.65;6.10;;;6.40;99.90;;;;;;4950446;29;20385;-64
2023/01/10 04:14:38;;;;;;;14.10;6.93;;;6.40;99.90;;;;;;4952648;28;20085;-64
2023/01/10 04:17:04;;;;;;;15.13;6.47;;;6.40;99.90;;;;;;4951200;28;20078;-65
2023/01/10 04:19:30;;;;;;;11.98;6.53;;;6.50;99.90;;;;;;4951179;29;20706;-64
2023/01/10 04:21:56;;;;;;;15.82;6.55;;;6.40;99.90;;;;;;4951368;29;20058;-65
2023/01/10 04:24:22;;;;;;;13.80;6.18;;;6.40;99.90;;;;;;4948559;28;20043;-64
2023/01/10 04:26:47;;;;;;;18.80;6.72;;;6.40;99.90;;;;;;4951621;28;20118;-65
2023/01/10 04:29:13;;;;;;;12.20;6.40;;;6.50;99.90;;;;;;4950566;28;20058;-64
2023/01/10 04:31:39;;;;;;;15.75;7.13;;;6.50;99.90;;;;;;4935477;29;20051;-65
2023/01/10 04:34:06;;;;;;;17.23;6.18;;;6.40;99.90;;;;;;4935895;29;20105;-66
2023/01/10 04:36:32;;;;;;;14.02;6.45;;;6.50;99.90;;;;;;4950947;29;20047;-65
2023/01/10 04:38:58;;;;;;;11.10;5.28;;;6.40;99.90;;;;;;4934615;29;20039;-65
2023/01/10 04:41:23;;;;;;;18.45;6.68;;;6.50;99.90;;;;;;4966830;28;20043;-65
2023/01/10 04:43:49;;;;;;;16.63;5.93;;;6.50;99.90;;;;;;4952189;28;20453;-65
2023/01/10 04:46:15;;;;;;;16.30;6.88;;;6.40;99.90;;;;;;4946825;29;20126;-65
2023/01/10 04:48:42;;;;;;;16.48;7.90;;;6.50;99.90;;;;;;4949168;28;20134;-65
2023/01/10 04:51:08;;;;;;;16.92;7.07;;;6.40;99.90;;;;;;4951043;29;20086;-65
2023/01/10 04:53:34;;;;;;;14.85;6.65;;;6.40;99.90;;;;;;4950094;28;20438;-66
2023/01/10 04:56:07;;;;;;;14.57;5.97;;;6.40;99.90;;;;;;4950538;29;20047;-65
2023/01/10 04:58:36;;;;;;;14.88;6.95;;;6.40;99.90;;;;;;4936167;29;20106;-66
2023/01/10 05:01:09;;;;;;;18.77;6.65;;;6.40;99.90;;;;;;4935550;29;20109;-65
2023/01/10 05:03:35;;;;;;;15.75;7.32;;;6.30;99.90;;;;;;4935491;29;20133;-66
2023/01/10 05:06:01;;;;;;;16.42;6.65;;;6.30;99.90;;;;;;4935151;29;20055;-66
2023/01/10 05:08:27;;;;;;;15.65;6.45;;;6.30;99.90;;;;;;4966678;28;20358;-65
2023/01/10 05:10:53;;;;;;;29.27;6.15;;;6.40;99.90;;;;;;4951748;28;20066;-64
2023/01/10 05:13:18;;;;;;;12.55;5.32;;;6.40;99.90;;;;;;4936499;29;20089;-64
2023/01/10 05:15:44;;;;;;;14.20;5.68;;;6.40;99.90;;;;;;4935679;29;20047;-66
2023/01/10 05:18:10;;;;;;;20.60;5.25;;;6.30;99.90;;;;;;4952041;29;20548;-65
2023/01/10 05:20:36;;;;;;;12.55;4.40;;;6.30;99.90;;;;;;4935239;28;20545;-65
2023/01/10 05:23:01;;;;;;;13.40;3.90;;;6.30;99.90;;;;;;4952701;28;20122;-65
2023/01/10 05:25:27;;;;;;;10.52;3.15;;;6.30;99.90;;;;;;4950962;28;20055;-64
2023/01/10 05:27:54;;;;;;;18.05;4.18;;;6.30;99.90;;;;;;4951116;28;20082;-65
2023/01/10 05:30:19;;;;;;;10.65;3.83;;;6.30;99.90;;;;;;4945895;29;20137;-65
2023/01/10 05:32:45;;;;;;;10.73;3.17;;;6.30;99.90;;;;;;4950946;29;20078;-65
2023/01/10 05:35:11;;;;;;;14.05;3.85;;;6.30;99.90;;;;;;4934932;29;20086;-65
2023/01/10 05:37:37;;;;;;;13.73;3.95;;;6.30;99.90;;;;;;4934540;28;20540;-64
2023/01/10 05:40:03;;;;;;;12.63;3.60;;;6.20;99.90;;;;;;4950174;28;20500;-64
2023/01/10 05:42:30;;;;;;;16.42;3.75;;;6.20;99.90;;;;;;4934746;28;20067;-65
2023/01/10 05:44:56;;;;;;;16.98;4.07;;;6.30;99.90;;;;;;4950615;28;20051;-64
2023/01/10 05:47:21;;;;;;;12.45;4.18;;;6.20;99.90;;;;;;4950326;28;20061;-64
2023/01/10 05:49:47;;;;;;;13.05;4.13;;;6.20;99.90;;;;;;4950094;29;20043;-65
2023/01/10 05:52:13;;;;;;;15.82;3.97;;;6.10;99.90;;;;;;4965837;28;20674;-66
2023/01/10 05:54:39;;;;;;;20.13;4.15;;;6.10;99.90;;;;;;4950016;29;20039;-66
2023/01/10 05:57:05;;;;;;;12.05;4.28;;;6.10;99.90;;;;;;4946210;28;20702;-66
2023/01/10 05:59:31;;;;;;;17.85;4.18;;;6.10;99.90;;;;;;4965288;28;20043;-64
2023/01/10 06:01:57;;;;;;;16.40;4.28;;;6.00;99.90;;;;;;4933854;28;20070;-66
2023/01/10 06:04:22;;;;;;;18.33;6.13;;;6.10;99.90;;;;;;4950566;28;20050;-66
2023/01/10 06:06:48;;;;;;;12.82;5.53;;;6.10;99.90;;;;;;4934356;29;20047;-65
2023/01/10 06:09:14;;;;;;;17.27;4.20;;;6.10;99.90;;;;;;4949796;29;20133;-65
2023/01/10 06:11:40;;;;;;;16.88;4.68;;;6.20;99.90;;;;;;4949878;28;20054;-66
2023/01/10 06:14:06;;;;;;;16.75;6.50;;;6.20;99.90;;;;;;4950769;28;20150;-64
2023/01/10 06:16:32;;;;;;;15.60;5.28;;;6.10;99.90;;;;;;4950768;28;20043;-66
2023/01/10 06:18:58;;;;;;;17.75;4.20;;;6.00;99.90;;;;;;4933517;29;20058;-64
2023/01/10 06:21:24;;;;;;;20.38;5.57;;;6.00;99.90;;;;;;4930574;29;20055;-64
2023/01/10 06:23:49;;;;;;;11.40;4.57;;;5.90;99.90;;;;;;4947303;28;20501;-64
2023/01/10 06:26:15;;;;;;;18.40;4.68;;;5.90;99.90;;;;;;4936518;29;20540;-65
2023/01/10 06:28:41;;;;;;;15.45;4.75;;;5.90;99.90;;;;;;4952829;28;20363;-67
2023/01/10 06:31:07;;;;;;;16.55;5.10;;;5.90;99.90;;;;;;4953051;28;20051;-67
2023/01/10 06:33:33;;;;;;;17.73;4.50;;;6.00;99.90;;;;;;4952939;29;20062;-65
2023/01/10 06:36:01;;;;;;;14.75;4.70;;;5.90;99.90;;;;;;4969286;28;20120;-66
2023/01/10 06:38:27;;;;;;;15.45;4.82;;;5.90;99.90;;;;;;4937852;29;20051;-65
2023/01/10 06:40:53;;;;;;;14.82;4.05;;;5.90;99.90;;;;;;4953249;28;20058;-66
2023/01/10 06:43:19;;;;;;;18.23;3.90;;;5.90;99.90;;;;;;4953924;28;20194;-65
2023/01/10 06:45:44;;;;;;;15.02;4.00;;;5.90;99.90;;;;;;4952396;29;20469;-68
2023/01/10 06:48:10;;;;;;;16.13;4.03;;;5.90;99.90;;;;;;4951795;28;20465;-67
2023/01/10 06:50:37;;;;;;;14.05;4.55;;;5.90;99.90;;;;;;4950114;28;20054;-65
2023/01/10 06:53:04;;;;;;;13.77;4.05;;;5.90;99.90;;;;;;4932721;28;20363;-65
2023/01/10 06:55:30;;;;;;;23.75;5.05;;;6.00;99.90;;;;;;4904647;29;20058;-65
2023/01/10 06:57:57;;;;;;;11.88;4.22;;;6.00;99.90;;;;;;4948271;28;20035;-65
2023/01/10 07:00:27;;;;;;;19.48;5.03;;;5.90;99.90;;;;;;4947609;28;20063;-66
2023/01/10 07:02:55;;;;;;;23.88;7.28;;;6.00;99.90;;;;;;4951157;28;20071;-65
2023/01/10 07:05:21;;;;;;;16.73;6.07;;;6.00;99.90;;;;;;4948205;29;20066;-64
2023/01/10 07:07:46;;;;;;;22.75;5.43;;;6.00;99.90;;;;;;4949531;28;20791;-65
2023/01/10 07:10:12;;;;;;;21.98;5.68;;;6.00;99.90;;;;;;4948729;28;20050;-65
2023/01/10 07:12:38;;;;;;;17.25;5.20;;;6.00;99.90;;;;;;4934158;28;20141;-65
2023/01/10 07:15:04;;;;;;;21.83;5.53;;;6.00;99.90;;;;;;4930042;29;20088;-65
2023/01/10 07:17:30;;;;;;;21.52;5.53;;;6.00;99.90;;;;;;4949836;29;20047;-64
2023/01/10 07:19:58;;;;;;;21.35;5.75;;;6.00;99.90;;;;;;4931390;29;20043;-65
2023/01/10 07:22:25;;;;;;;21.25;6.38;;;6.00;99.90;;;;;;4982997;28;20105;-65
2023/01/10 07:24:53;;;;;;;20.35;6.10;;;6.00;99.90;;;;;;4948139;28;20090;-65
2023/01/10 07:27:19;;;;;;;18.33;6.97;;;6.00;99.90;;;;;;4968604;28;20047;-65
2023/01/10 07:29:46;;;;;;;23.63;5.47;;;6.00;99.90;;;;;;4967175;28;20472;-64
2023/01/10 07:32:12;;;;;;;20.70;6.50;;;6.00;99.90;;;;;;4951332;29;20130;-65
2023/01/10 07:34:37;;;;;;;16.05;5.97;;;6.00;99.90;;;;;;4950643;28;20414;-65
2023/01/10 07:37:03;;;;;;;16.70;5.88;;;6.00;99.90;;;;;;4953048;28;20078;-67
2023/01/10 07:39:29;;;;;;;23.90;6.13;;;6.00;99.90;;;;;;4936099;29;20118;-67
2023/01/10 07:41:55;;;;;;;19.48;6.20;;;6.00;99.90;;;;;;4922128;29;20054;-65
2023/01/10 07:44:21;;;;;;;22.55;7.70;;;5.90;99.90;;;;;;4955150;28;20459;-66
2023/01/10 07:46:47;;;;;;;23.83;6.13;;;5.90;99.90;;;;;;4953007;29;20054;-71
2023/01/10 07:49:13;;;;;;;18.05;6.70;;;5.90;99.90;;;;;;4952268;28;20377;-63
2023/01/10 07:51:39;;;;;;;23.35;6.13;;;5.90;99.90;;;;;;4951209;28;20057;-64
2023/01/10 07:54:05;;;;;;;21.58;6.40;;;6.10;99.90;;;;;;4952571;29;20123;-63
2023/01/10 07:56:31;;;;;;;24.33;6.60;;;6.00;99.90;;;;;;4920148;29;20075;-62
2023/01/10 07:58:56;;;;;;;18.88;6.55;;;6.00;99.90;;;;;;4935741;29;20047;-63
2023/01/10 08:01:23;;;;;;;19.38;6.95;;;6.00;99.90;;;;;;4951061;28;20047;-64
2023/01/10 08:03:49;;;;;;;27.40;6.75;;;6.00;99.90;;;;;;4951491;29;20051;-63
2023/01/10 08:06:15;;;;;;;18.98;6.03;;;6.00;99.90;;;;;;4935370;29;20428;-63
2023/01/10 08:08:40;;;;;;;20.40;6.63;;;6.00;99.90;;;;;;4950905;28;20058;-63
2023/01/10 08:11:06;;;;;;;21.20;6.28;;;6.10;99.90;;;;;;4950948;29;20051;-63
2023/01/10 08:13:34;;;;;;;19.60;5.95;;;6.10;99.90;;;;;;4934899;28;20515;-63
2023/01/10 08:16:04;;;;;;;21.75;6.97;;;6.10;99.90;;;;;;4919600;29;20098;-63
2023/01/10 08:18:30;;;;;;;25.83;7.05;;;6.00;99.90;;;;;;4951036;29;20039;-63
2023/01/10 08:20:56;;;;;;;13.95;5.45;;;6.10;99.90;;;;;;4951049;29;20043;-63
2023/01/10 08:23:22;;;;;;;17.60;5.93;;;6.10;99.90;;;;;;4934916;29;20049;-63
2023/01/10 08:25:49;;;;;;;17.48;6.32;;;6.10;99.90;;;;;;4951326;29;20488;-63
2023/01/10 08:28:15;;;;;;;19.58;5.03;;;6.20;99.90;;;;;;4951045;28;20051;-63
2023/01/10 08:30:41;;;;;;;23.73;6.85;;;6.10;99.90;;;;;;4951511;28;20439;-63
2023/01/10 08:33:08;;;;;;;23.05;6.63;;;6.10;99.90;;;;;;4935330;29;20043;-63
2023/01/10 08:35:41;;;;;;;23.63;5.50;;;6.20;99.90;;;;;;4935648;29;20070;-62
2023/01/10 08:38:06;;;;;;;17.05;5.38;;;6.20;99.90;;;;;;4932087;29;20107;-61
2023/01/10 08:40:32;;;;;;;19.23;5.03;;;6.20;99.90;;;;;;4950814;28;20047;-62
2023/01/10 08:43:05;;;;;;;22.00;5.93;;;6.30;99.90;;;;;;4951865;28;20489;-64
2023/01/10 08:45:31;;;;;;;19.15;5.47;;;6.40;99.90;;;;;;4944783;29;20051;-67
2023/01/10 08:47:57;;;;;;;19.55;7.07;;;6.30;99.90;;;;;;4949729;28;20378;-67
2023/01/10 08:50:23;;;;;;;20.48;7.10;;;6.30;99.90;;;;;;4966910;28;20051;-67
2023/01/10 08:52:50;;;;;;;20.95;6.65;;;6.30;99.90;;;;;;4950917;29;20436;-65
2023/01/10 08:55:16;;;;;;;23.40;5.95;;;6.30;99.90;;;;;;4950349;29;20054;-68
2023/01/10 08:57:42;;;;;;;14.95;5.25;;;6.30;99.90;;;;;;4950455;28;20039;-65
2023/01/10 09:00:08;;;;;;;20.45;6.15;;;6.40;99.90;;;;;;4917899;29;20556;-65
2023/01/10 09:02:34;;;;;;;18.35;5.90;;;6.50;99.90;;;;;;4934133;29;20094;-65
2023/01/10 09:05:00;;;;;;;25.15;5.80;;;6.50;99.90;;;;;;4949323;28;20433;-65
2023/01/10 09:07:26;;;;;;;19.88;5.60;;;6.40;99.90;;;;;;4950404;29;20134;-66
2023/01/10 09:09:51;;;;;;;23.13;7.05;;;6.40;99.90;;;;;;4950689;28;20051;-64
2023/01/10 09:15:01;;;;;;;22.33;5.50;;;6.50;99.90;;;;;;4971949;28;20043;-65
2023/01/10 09:17:27;;;;;;;21.83;6.97;;;6.50;99.90;;;;;;4966907;28;20110;-64
2023/01/10 09:19:54;;;;;;;18.17;5.55;;;6.50;99.90;;;;;;4918790;29;20043;-64
2023/01/10 09:22:20;;;;;;;21.90;7.13;;;6.50;99.90;;;;;;4919248;29;20078;-65
2023/01/10 09:24:51;;;;;;;20.05;6.55;;;6.50;99.90;;;;;;4930906;29;20512;-66
2023/01/10 09:27:17;;;;;;;25.85;6.82;;;6.60;99.90;;;;;;4950252;28;20050;-65
2023/01/10 09:29:43;;;;;;;19.88;6.60;;;6.70;99.90;;;;;;4933543;29;20047;-65
2023/01/10 09:32:09;;;;;;;18.15;6.32;;;6.70;99.90;;;;;;4949884;29;20062;-65
2023/01/10 09:34:35;;;;;;;16.05;6.63;;;6.80;99.90;;;;;;4917628;28;20487;-67
2023/01/10 09:37:01;;;;;;;20.10;6.72;;;6.80;99.90;;;;;;4949226;28;20054;-66
2023/01/10 09:39:28;;;;;;;16.88;6.38;;;6.70;99.90;;;;;;4933953;29;20377;-65
2023/01/10 09:42:15;;;;;;;25.30;6.20;;;6.90;99.90;;;;;;4949139;28;20058;-64
2023/01/10 09:45:05;;;;;;;18.02;6.85;;;6.90;99.90;;;;;;4945043;29;20154;-64
2023/01/10 09:48:03;;;;;;;20.90;7.07;;;6.90;99.90;;;;;;4914267;29;20058;-65
2023/01/10 09:50:54;;;;;;;20.23;7.20;;;7.00;99.90;;;;;;4945227;29;20113;-63
2023/01/10 09:53:24;;;;;;;19.02;5.88;;;6.80;99.90;;;;;;4950718;29;20046;-64
2023/01/10 09:55:55;;;;;;;17.25;7.20;;;7.00;99.90;;;;;;4949233;28;20071;-65
2023/01/10 09:58:26;;;;;;;18.90;6.90;;;7.10;99.90;;;;;;4934024;29;20509;-64
2023/01/10 10:00:57;;;;;;;15.95;6.05;;;7.10;99.90;;;;;;4949827;29;20378;-64
2023/01/10 10:03:44;;;;;;;14.45;6.35;;;7.00;99.90;;;;;;4947495;29;20063;-64
2023/01/10 10:06:11;;;;;;;19.63;6.78;;;7.10;99.90;;;;;;4951073;29;20061;-64
2023/01/10 10:08:37;;;;;;;19.77;6.90;;;7.10;99.90;;;;;;4933985;28;20496;-64
2023/01/10 10:11:24;;;;;;;18.13;6.22;;;7.10;99.90;;;;;;4933490;29;20059;-64
2023/01/10 10:14:05;;;;;;;20.20;6.28;;;7.10;99.90;;;;;;4951200;29;20094;-65
2023/01/10 10:16:56;;;;;;;14.98;5.97;;;7.10;99.90;;;;;;4945783;29;20113;-64
2023/01/10 10:19:28;;;;;;;17.90;5.63;;;7.10;99.90;;;;;;4947511;29;20047;-64
2023/01/10 10:21:56;;;;;;;19.83;6.55;;;7.10;99.90;;;;;;4947357;29;20058;-64
2023/01/10 10:24:41;;;;;;;14.45;5.72;;;7.00;99.90;;;;;;4957222;28;20608;-65
2023/01/10 10:27:23;;;;;;;19.85;6.45;;;7.00;99.90;;;;;;4949903;29;20461;-65
2023/01/10 10:29:55;;;;;;;21.23;5.80;;;7.00;99.90;;;;;;4934795;29;20080;-64
2023/01/10 10:32:42;;;;;;;20.65;5.85;;;7.00;99.90;;;;;;4944526;29;20134;-65
2023/01/10 10:35:17;;;;;;;16.17;5.53;;;7.00;99.90;;;;;;4936152;29;20448;-65
2023/01/10 10:37:47;;;;;;;16.92;5.40;;;7.00;99.90;;;;;;4948967;29;20178;-65
2023/01/10 10:40:13;;;;;;;21.92;5.93;;;7.00;99.90;;;;;;4949356;29;20105;-65
2023/01/10 10:42:42;;;;;;;17.02;5.50;;;7.00;99.90;;;;;;4949622;28;20493;-64
2023/01/10 10:45:16;;;;;;;14.23;5.00;;;7.00;99.90;;;;;;4965182;28;20109;-65
2023/01/10 10:47:48;;;;;;;15.15;4.97;;;7.00;99.90;;;;;;4945669;29;20131;-65
2023/01/10 10:50:14;;;;;;;16.50;4.82;;;7.00;99.90;;;;;;4951083;28;20465;-65
2023/01/10 10:52:40;;;;;;;19.45;5.55;;;7.10;99.90;;;;;;4949340;29;20139;-65
2023/01/10 10:55:11;;;;;;;17.42;5.18;;;7.10;99.90;;;;;;4934032;29;20496;-65
2023/01/10 10:57:37;;;;;;;22.42;5.15;;;7.10;99.90;;;;;;4949651;28;20128;-64
2023/01/10 11:00:03;;;;;;;27.85;5.95;;;7.10;99.90;;;;;;4932267;29;20494;-64
2023/01/10 11:02:31;;;;;;;23.70;6.57;;;7.10;99.90;;;;;;4932985;29;20063;-66
2023/01/10 11:05:04;;;;;;;15.07;5.03;;;7.10;99.90;;;;;;4965537;28;20355;-64
2023/01/10 11:07:33;;;;;;;26.60;6.20;;;7.10;99.90;;;;;;4949006;29;20126;-65
2023/01/10 11:12:44;;;;;;;24.35;5.28;;;7.10;99.90;;;;;;4937549;29;20537;-65
2023/01/10 11:15:09;;;;;;;15.70;5.28;;;7.10;99.90;;;;;;4952763;29;20111;-64
2023/01/10 11:17:39;;;;;;;14.43;5.40;;;7.10;99.90;;;;;;4952294;29;20055;-64
2023/01/10 11:20:15;;;;;;;17.83;5.78;;;7.10;99.90;;;;;;4952256;29;20043;-64
2023/01/10 11:22:48;;;;;;;23.02;5.88;;;7.10;99.90;;;;;;4952179;29;20369;-65
2023/01/10 11:25:15;;;;;;;17.58;4.57;;;7.10;99.90;;;;;;4936601;29;20055;-65
2023/01/10 11:27:49;;;;;;;24.05;6.00;;;7.10;99.90;;;;;;4951705;29;20126;-65
2023/01/10 11:30:20;;;;;;;18.40;5.13;;;7.10;99.90;;;;;;4937255;28;20051;-64
2023/01/10 11:32:54;;;;;;;16.65;6.13;;;7.30;99.90;;;;;;4949393;28;20060;-64
2023/01/10 11:35:35;;;;;;;16.63;5.40;;;7.30;99.90;;;;;;4952673;29;20047;-64
2023/01/10 11:38:03;;;;;;;17.65;6.10;;;7.20;99.90;;;;;;4953600;28;20365;-65
2023/01/10 11:40:33;;;;;;;18.92;5.50;;;7.30;99.90;;;;;;4936355;29;20051;-64
2023/01/10 11:42:59;;;;;;;14.65;5.47;;;7.30;99.90;;;;;;4949173;28;20058;-63
2023/01/10 11:45:26;;;;;;;19.05;5.28;;;7.30;99.90;;;;;;4953197;28;20055;-65
2023/01/10 11:48:13;;;;;;;15.02;5.53;;;7.30;99.90;;;;;;4946762;28;20161;-64
2023/01/10 11:50:40;;;;;;;17.08;5.40;;;7.30;99.90;;;;;;4952896;29;20043;-64
2023/01/10 11:53:06;;;;;;;22.50;6.80;;;7.40;99.90;;;;;;4952915;29;20054;-64
2023/01/10 11:55:34;;;;;;;19.45;5.82;;;7.30;99.90;;;;;;4951864;29;20047;-65
2023/01/10 11:58:02;;;;;;;23.40;6.38;;;7.40;99.90;;;;;;4951831;29;20054;-64
2023/01/10 12:00:42;;;;;;;15.15;5.50;;;7.40;99.90;;;;;;4965819;28;20130;-64
2023/01/10 12:03:22;;;;;;;14.70;5.30;;;7.90;99.90;;;;;;4922008;29;20063;-64
2023/01/10 12:06:00;;;;;;;16.83;5.25;;;8.10;99.90;;;;;;4951582;28;20071;-65
2023/01/10 12:08:30;;;;;;;23.67;6.45;;;7.90;99.90;;;;;;4936089;29;20199;-64
2023/01/10 12:10:58;;;;;;;17.17;4.97;;;7.60;99.90;;;;;;4935850;28;20062;-63
2023/01/10 12:13:24;;;;;;;17.63;5.68;;;7.60;99.90;;;;;;4930806;29;20522;-65
2023/01/10 12:15:49;;;;;;;16.75;4.97;;;7.60;99.90;;;;;;4949728;29;20134;-64
2023/01/10 12:18:18;;;;;;;15.73;4.90;;;7.70;99.90;;;;;;4951599;28;20054;-66
2023/01/10 12:20:49;;;;;;;22.83;5.93;;;7.80;99.90;;;;;;4950838;29;20553;-64
2023/01/10 12:23:24;;;;;;;16.63;4.45;;;7.80;99.90;;;;;;4950620;28;20055;-65
2023/01/10 12:25:49;;;;;;;17.13;5.35;;;7.90;99.90;;;;;;4950605;29;20058;-66
2023/01/10 12:28:16;;;;;;;18.88;5.28;;;8.00;99.90;;;;;;4950435;29;20393;-65
2023/01/10 12:30:43;;;;;;;21.80;4.15;;;8.10;99.90;;;;;;4934553;29;20047;-64
2023/01/10 12:33:20;;;;;;;18.15;4.63;;;8.10;99.90;;;;;;4950624;29;20043;-63
2023/01/10 12:35:56;;;;;;;17.48;4.93;;;8.10;99.90;;;;;;4950212;29;20115;-64
2023/01/10 12:44:09;;;;;;;15.95;4.53;;;8.00;99.90;;;;;;4936019;28;20066;-64
2023/01/10 12:44:13;;;;;;;17.33;4.65;;;7.90;99.90;;;;;;4937496;29;20050;-63
2023/01/10 12:46:43;;;;;;;15.77;4.47;;;7.90;99.90;;;;;;4936139;29;20114;-63
2023/01/10 12:49:29;;;;;;;18.02;4.97;;;8.00;99.90;;;;;;4949939;29;20058;-64
2023/01/10 12:51:58;;;;;;;19.35;5.65;;;7.90;99.90;;;;;;4936782;29;20138;-65
2023/01/10 12:54:27;;;;;;;19.33;4.63;;;7.90;99.90;;;;;;4946762;29;20497;-64
2023/01/10 12:56:52;;;;;;;;;;;7.80;99.90;;;;;;4950702;29;20488;-67
2023/01/10 12:59:21;;;;;;;16.50;4.82;;;7.80;99.90;;;;;;4950097;29;19914;-65
2023/01/10 13:01:51;;;;;;;16.75;4.78;;;7.70;99.90;;;;;;4966231;28;20059;-64
2023/01/10 13:04:21;;;;;;;16.77;4.55;;;7.70;99.90;;;;;;4933790;29;20141;-65
2023/01/10 13:06:47;;;;;;;26.77;10.65;;;7.70;99.90;;;;;;4950248;29;20073;-64
2023/01/10 13:09:17;;;;;;;26.38;6.18;;;7.80;99.90;;;;;;4946962;29;20425;-65
2023/01/10 13:12:07;;;;;;;14.23;4.15;;;7.90;99.90;;;;;;4934111;29;20410;-65
2023/01/10 13:14:47;;;;;;;18.92;4.60;;;7.80;99.90;;;;;;4936942;29;20101;-64